Time;durP1;ratioP1;P1;durP2;ratioP2;P2;SDS_P1;SDS_P2;PMS_P1;PMS_P2;Temp;Humidity;BMP_temperature;BMP_pressure;BME280_temperature;BME280_humidity;BME280_pressure;Samples;Min_cycle;Max_cycle;Signal;HPM_P1;HPM_P2
2023/04/08 00:01:18;;;;;;;1.45;1.35;;;13.10;49.60;;;;;;5086444;28;45321;-71
2023/04/08 00:03:45;;;;;;;1.52;1.30;;;13.10;49.70;;;;;;5086307;28;45341;-71
2023/04/08 00:06:11;;;;;;;1.63;1.30;;;13.10;49.70;;;;;;5086597;28;45492;-71
2023/04/08 00:08:38;;;;;;;1.55;1.10;;;13.10;49.70;;;;;;5086227;28;45319;-71
2023/04/08 00:11:05;;;;;;;2.25;1.50;;;13.10;49.60;;;;;;5086440;28;45569;-71
2023/04/08 00:13:32;;;;;;;1.52;1.17;;;13.10;49.60;;;;;;5086293;28;45411;-71
2023/04/08 00:16:00;;;;;;;1.65;1.40;;;13.10;49.60;;;;;;5086500;28;45432;-71
2023/04/08 00:18:28;;;;;;;1.60;1.40;;;13.10;49.60;;;;;;5085897;28;45536;-71
2023/04/08 00:20:56;;;;;;;2.05;1.50;;;13.10;49.60;;;;;;5086065;28;45265;-71
2023/04/08 00:23:22;;;;;;;1.83;1.33;;;13.10;49.70;;;;;;5086188;28;45379;-72
2023/04/08 00:25:49;;;;;;;1.75;1.30;;;13.10;49.60;;;;;;5085812;28;45476;-72
2023/04/08 00:28:16;;;;;;;1.63;1.33;;;13.10;50.30;;;;;;5085665;28;47003;-71
2023/04/08 00:30:43;;;;;;;1.90;1.40;;;13.10;49.60;;;;;;5086163;28;45256;-71
2023/04/08 00:33:11;;;;;;;2.78;1.88;;;13.10;49.60;;;;;;5085932;28;45483;-71
2023/04/08 00:35:38;;;;;;;1.90;1.65;;;13.10;49.70;;;;;;5086164;28;45350;-71
2023/04/08 00:38:08;;;;;;;2.15;1.40;;;13.10;49.70;;;;;;5085895;28;47619;-71
2023/04/08 00:40:35;;;;;;;1.17;1.13;;;13.10;49.60;;;;;;5085901;28;45355;-71
2023/04/08 00:43:02;;;;;;;2.92;1.40;;;13.10;49.70;;;;;;5085707;28;45391;-71
2023/04/08 00:45:29;;;;;;;1.45;1.35;;;13.10;49.60;;;;;;5086021;28;45555;-71
2023/04/08 00:47:56;;;;;;;1.60;1.50;;;13.10;49.60;;;;;;5085540;28;45308;-71
2023/04/08 00:50:25;;;;;;;1.25;1.15;;;13.10;49.70;;;;;;5085589;28;45298;-71
2023/04/08 00:52:52;;;;;;;1.63;1.45;;;13.10;49.60;;;;;;5085792;28;45438;-71
2023/04/08 00:55:18;;;;;;;1.38;1.30;;;13.10;49.70;;;;;;5085882;28;45390;-71
2023/04/08 00:57:45;;;;;;;1.80;1.50;;;13.00;49.70;;;;;;5085355;28;46710;-71
2023/04/08 01:00:13;;;;;;;1.83;1.70;;;13.00;49.70;;;;;;5085553;28;45252;-72
2023/04/08 01:02:45;;;;;;;1.40;1.30;;;13.00;49.70;;;;;;5085839;28;45347;-72
2023/04/08 01:05:15;;;;;;;1.98;1.65;;;13.00;49.70;;;;;;5085811;28;45304;-72
2023/04/08 01:07:45;;;;;;;1.58;1.40;;;13.00;49.70;;;;;;5085229;28;45473;-71
2023/04/08 01:10:13;;;;;;;1.65;1.25;;;13.00;49.70;;;;;;5085265;28;45383;-71
2023/04/08 01:12:41;;;;;;;1.92;1.38;;;13.00;49.80;;;;;;5085347;28;45407;-71
2023/04/08 01:15:10;;;;;;;1.63;1.52;;;13.00;49.80;;;;;;5085648;28;45538;-71
2023/04/08 01:17:37;;;;;;;1.88;1.48;;;13.00;49.80;;;;;;5085145;28;46828;-71
2023/04/08 01:20:05;;;;;;;2.53;1.30;;;13.00;49.80;;;;;;5085309;28;45264;-71
2023/04/08 01:22:37;;;;;;;1.80;1.27;;;13.00;49.80;;;;;;5085645;28;45380;-71
2023/04/08 01:25:08;;;;;;;1.98;1.63;;;12.90;49.80;;;;;;5085300;28;45643;-71
2023/04/08 01:27:37;;;;;;;1.80;1.50;;;12.90;49.90;;;;;;5084872;28;45275;-72
2023/04/08 01:30:04;;;;;;;1.40;1.15;;;12.90;49.80;;;;;;5085026;28;45341;-72
2023/04/08 01:32:34;;;;;;;2.17;1.70;;;12.90;49.80;;;;;;5085206;28;45447;-72
2023/04/08 01:35:01;;;;;;;1.80;1.70;;;12.90;49.80;;;;;;5085414;28;45375;-71
2023/04/08 01:37:28;;;;;;;1.48;1.30;;;12.90;49.70;;;;;;5084764;28;45304;-72
2023/04/08 01:39:55;;;;;;;1.65;1.50;;;12.90;49.80;;;;;;5084931;28;45299;-72
2023/04/08 01:42:22;;;;;;;2.45;1.42;;;12.90;49.80;;;;;;5085032;28;45459;-72
2023/04/08 01:44:51;;;;;;;1.70;1.48;;;12.90;49.80;;;;;;5085077;28;45610;-71
2023/04/08 01:47:17;;;;;;;2.05;1.55;;;12.80;49.80;;;;;;5084616;28;46725;-71
2023/04/08 01:49:44;;;;;;;1.55;1.35;;;12.80;49.80;;;;;;5084797;28;45262;-71
2023/04/08 01:52:11;;;;;;;2.38;1.40;;;12.80;49.80;;;;;;5085305;27;45328;-71
2023/04/08 01:54:38;;;;;;;1.40;1.20;;;12.80;49.80;;;;;;5088627;28;45304;-71
2023/04/08 01:57:07;;;;;;;2.80;1.48;;;12.80;49.80;;;;;;5085525;28;46170;-71
2023/04/08 01:59:35;;;;;;;1.70;1.40;;;12.80;49.90;;;;;;5088199;28;45309;-71
2023/04/08 02:02:03;;;;;;;1.67;1.20;;;12.80;49.80;;;;;;5088388;28;45292;-71
2023/04/08 02:04:30;;;;;;;1.58;1.48;;;12.80;49.80;;;;;;5088490;28;45506;-71
2023/04/08 02:06:57;;;;;;;1.50;1.40;;;12.80;49.80;;;;;;5087969;28;46879;-71
2023/04/08 02:09:25;;;;;;;1.25;1.15;;;12.80;49.80;;;;;;5087888;28;45336;-71
2023/04/08 02:11:51;;;;;;;1.63;1.30;;;12.80;49.80;;;;;;5088297;28;45349;-71
2023/04/08 02:14:18;;;;;;;1.60;1.50;;;12.80;49.80;;;;;;5088243;28;45436;-71
2023/04/08 02:16:48;;;;;;;2.08;1.50;;;12.70;49.80;;;;;;5087948;28;47705;-71
2023/04/08 02:19:20;;;;;;;1.67;1.30;;;12.70;49.80;;;;;;5087987;28;45278;-71
2023/04/08 02:21:49;;;;;;;2.43;1.70;;;12.70;49.80;;;;;;5088122;28;45296;-71
2023/04/08 02:24:16;;;;;;;2.13;1.40;;;12.70;49.90;;;;;;5088200;28;45332;-71
2023/04/08 02:26:43;;;;;;;1.88;1.33;;;12.70;49.80;;;;;;5087398;28;46672;-71
2023/04/08 02:29:12;;;;;;;3.80;1.77;;;12.70;50.40;;;;;;5087837;28;45375;-71
2023/04/08 02:31:39;;;;;;;1.33;1.23;;;12.70;49.90;;;;;;5087840;28;45273;-70
2023/04/08 02:34:06;;;;;;;2.08;1.52;;;12.70;49.90;;;;;;5088047;28;45325;-71
2023/04/08 02:36:34;;;;;;;1.85;1.55;;;12.70;50.00;;;;;;5087550;28;47338;-71
2023/04/08 02:39:01;;;;;;;2.58;1.65;;;12.70;49.90;;;;;;5087722;28;45382;-70
2023/04/08 02:41:28;;;;;;;1.65;1.20;;;12.70;50.00;;;;;;5087747;28;45256;-71
2023/04/08 02:43:55;;;;;;;1.40;1.30;;;12.60;49.90;;;;;;5087834;28;45327;-71
2023/04/08 02:46:22;;;;;;;1.80;1.52;;;12.70;50.00;;;;;;5087389;28;45477;-71
2023/04/08 02:48:49;;;;;;;1.67;1.15;;;12.60;50.50;;;;;;5087338;28;45388;-71
2023/04/08 02:51:16;;;;;;;1.35;1.25;;;12.70;49.90;;;;;;5087776;28;45341;-71
2023/04/08 02:53:44;;;;;;;3.67;1.42;;;12.60;49.90;;;;;;5087605;28;45349;-71
2023/04/08 02:56:11;;;;;;;1.13;1.02;;;12.60;49.90;;;;;;5087307;28;46682;-70
2023/04/08 02:58:37;;;;;;;2.13;1.30;;;12.60;49.90;;;;;;5087343;28;45323;-71
2023/04/08 03:01:04;;;;;;;1.90;1.40;;;12.60;49.90;;;;;;5087813;28;45463;-71
2023/04/08 03:03:31;;;;;;;1.38;1.27;;;12.60;49.80;;;;;;5086960;27;45422;-71
2023/04/08 03:05:58;;;;;;;2.13;1.50;;;12.60;49.80;;;;;;5086466;28;46363;-71
2023/04/08 03:08:25;;;;;;;1.17;1.08;;;12.60;49.80;;;;;;5087138;28;45327;-71
2023/04/08 03:10:54;;;;;;;1.20;1.10;;;12.60;49.80;;;;;;5087389;28;45396;-70
2023/04/08 03:13:20;;;;;;;1.30;1.20;;;12.60;49.80;;;;;;5087408;28;45322;-71
2023/04/08 03:15:47;;;;;;;1.75;1.48;;;12.60;49.80;;;;;;5086862;28;47620;-70
2023/04/08 03:18:14;;;;;;;1.60;1.38;;;12.60;49.90;;;;;;5086974;28;45321;-71
2023/04/08 03:20:41;;;;;;;1.85;1.40;;;12.60;49.90;;;;;;5087239;28;45315;-71
2023/04/08 03:23:08;;;;;;;1.70;1.52;;;12.60;49.90;;;;;;5087293;28;45310;-71
2023/04/08 03:25:35;;;;;;;1.35;1.25;;;12.60;49.90;;;;;;5086448;28;46398;-71
2023/04/08 03:28:03;;;;;;;1.17;1.05;;;12.60;49.90;;;;;;5086897;28;45319;-70
2023/04/08 03:30:29;;;;;;;1.75;1.45;;;12.60;49.80;;;;;;5086871;28;45174;-70
2023/04/08 03:32:56;;;;;;;1.95;1.17;;;12.60;49.90;;;;;;5086929;28;45377;-70
2023/04/08 03:35:23;;;;;;;1.70;1.20;;;12.60;49.90;;;;;;5086468;28;45370;-70
2023/04/08 03:37:50;;;;;;;1.20;1.10;;;12.60;50.00;;;;;;5086716;28;45499;-70
2023/04/08 03:40:17;;;;;;;1.15;1.02;;;12.60;49.90;;;;;;5086835;28;45277;-70
2023/04/08 03:42:44;;;;;;;1.40;1.30;;;12.60;49.90;;;;;;5086844;28;45548;-70
2023/04/08 03:45:12;;;;;;;2.58;1.23;;;12.60;50.00;;;;;;5086542;28;45629;-70
2023/04/08 03:47:39;;;;;;;1.10;1.00;;;12.60;49.90;;;;;;5086377;28;45362;-70
2023/04/08 03:50:07;;;;;;;1.25;1.15;;;12.60;49.90;;;;;;5086611;28;45356;-70
2023/04/08 03:52:34;;;;;;;1.73;1.25;;;12.60;50.00;;;;;;5086870;28;45371;-70
2023/04/08 03:55:01;;;;;;;1.80;1.02;;;12.60;50.00;;;;;;5086293;28;45498;-71
2023/04/08 03:57:28;;;;;;;1.27;1.00;;;12.60;50.00;;;;;;5086211;28;45352;-70
2023/04/08 03:59:54;;;;;;;2.13;1.17;;;12.60;50.00;;;;;;5086921;28;45391;-70
2023/04/08 04:02:22;;;;;;;1.23;1.10;;;12.60;50.00;;;;;;5086723;28;45365;-70
2023/04/08 04:04:50;;;;;;;1.63;1.42;;;12.50;50.60;;;;;;5086302;28;45457;-70
2023/04/08 04:07:16;;;;;;;1.73;1.07;;;12.50;50.00;;;;;;5086479;28;45480;-70
2023/04/08 04:09:43;;;;;;;1.57;1.20;;;12.50;50.00;;;;;;5086420;28;45375;-70
2023/04/08 04:12:10;;;;;;;1.55;1.10;;;12.50;50.00;;;;;;5086418;28;45208;-70
2023/04/08 04:14:37;;;;;;;1.65;1.25;;;12.50;50.00;;;;;;5086158;28;45894;-70
2023/04/08 04:17:04;;;;;;;1.17;1.07;;;12.50;50.10;;;;;;5086038;27;45264;-69
2023/04/08 04:19:32;;;;;;;1.27;1.10;;;12.50;50.00;;;;;;5086115;28;45345;-70
2023/04/08 04:21:59;;;;;;;1.60;1.13;;;12.50;50.00;;;;;;5086286;28;45369;-69
2023/04/08 04:24:26;;;;;;;1.50;1.13;;;12.50;50.00;;;;;;5086047;28;47546;-71
2023/04/08 04:26:52;;;;;;;1.30;1.20;;;12.50;50.00;;;;;;5085621;28;45310;-71
2023/04/08 04:29:19;;;;;;;1.67;1.43;;;12.50;50.00;;;;;;5086067;28;45245;-70
2023/04/08 04:31:46;;;;;;;1.15;1.00;;;12.50;50.10;;;;;;5086208;28;45499;-70
2023/04/08 04:34:13;;;;;;;1.33;1.23;;;12.50;50.10;;;;;;5085638;28;45409;-70
2023/04/08 04:36:41;;;;;;;1.67;1.27;;;12.50;50.00;;;;;;5085804;28;45318;-69
2023/04/08 04:39:08;;;;;;;1.20;1.10;;;12.50;50.70;;;;;;5085924;28;45265;-71
2023/04/08 04:41:39;;;;;;;1.30;1.20;;;12.50;50.10;;;;;;5086287;28;45177;-72
2023/04/08 04:44:06;;;;;;;1.47;1.20;;;12.50;50.10;;;;;;5085592;28;45806;-70
2023/04/08 04:46:33;;;;;;;0.90;0.90;;;12.50;50.10;;;;;;5085584;28;45324;-71
2023/04/08 04:49:00;;;;;;;1.10;1.00;;;12.50;50.10;;;;;;5085572;28;45331;-71
2023/04/08 04:51:27;;;;;;;1.27;1.17;;;12.50;50.10;;;;;;5086181;28;45532;-71
2023/04/08 04:53:55;;;;;;;1.58;1.20;;;12.50;50.20;;;;;;5085468;28;47019;-71
2023/04/08 04:56:22;;;;;;;0.90;0.90;;;12.50;50.10;;;;;;5082910;28;45356;-72
2023/04/08 04:58:48;;;;;;;1.53;1.30;;;12.50;50.10;;;;;;5085722;28;45266;-70
2023/04/08 05:01:15;;;;;;;1.00;0.90;;;12.50;50.20;;;;;;5085764;28;45486;-72
2023/04/08 05:03:42;;;;;;;1.13;1.03;;;12.50;50.20;;;;;;5085287;28;46702;-71
2023/04/08 05:06:09;;;;;;;1.70;1.30;;;12.50;50.20;;;;;;5085387;28;45393;-71
2023/04/08 05:08:36;;;;;;;1.17;1.07;;;12.50;50.20;;;;;;5085436;28;45352;-71
2023/04/08 05:11:04;;;;;;;1.07;1.00;;;12.40;50.10;;;;;;5085549;28;45312;-71
2023/04/08 05:13:32;;;;;;;1.17;1.03;;;12.40;50.20;;;;;;5085446;28;47642;-71
2023/04/08 05:15:59;;;;;;;1.87;1.40;;;12.50;50.20;;;;;;5085402;28;45340;-71
2023/04/08 05:18:26;;;;;;;1.00;1.00;;;12.50;50.20;;;;;;5085454;28;45341;-71
2023/04/08 05:20:53;;;;;;;1.30;1.20;;;12.50;50.10;;;;;;5085637;28;45308;-71
2023/04/08 05:23:20;;;;;;;1.13;1.00;;;12.50;50.20;;;;;;5085096;28;45471;-71
2023/04/08 05:25:47;;;;;;;1.20;1.10;;;12.50;50.20;;;;;;5084825;28;45334;-71
2023/04/08 05:28:15;;;;;;;1.23;1.10;;;12.50;50.10;;;;;;5087088;27;45574;-71
2023/04/08 05:30:42;;;;;;;1.20;1.10;;;12.50;50.10;;;;;;5089022;28;45306;-71
2023/04/08 05:33:08;;;;;;;1.00;0.90;;;12.50;50.20;;;;;;5088681;28;46407;-71
2023/04/08 05:35:35;;;;;;;1.30;1.20;;;12.50;50.10;;;;;;5088587;28;45316;-71
2023/04/08 05:38:02;;;;;;;1.00;1.00;;;12.40;50.10;;;;;;5088769;28;45406;-71
2023/04/08 05:40:29;;;;;;;1.20;1.10;;;12.50;50.10;;;;;;5088892;28;45368;-71
2023/04/08 05:42:56;;;;;;;1.23;1.13;;;12.50;50.10;;;;;;5088727;28;45689;-71
2023/04/08 05:45:24;;;;;;;1.30;1.20;;;12.50;50.20;;;;;;5088530;28;45342;-71
2023/04/08 05:47:51;;;;;;;1.10;1.00;;;12.50;50.20;;;;;;5088479;28;45340;-71
2023/04/08 05:50:18;;;;;;;1.30;1.10;;;12.50;50.20;;;;;;5088685;28;45416;-71
2023/04/08 05:52:45;;;;;;;1.87;1.30;;;12.50;50.10;;;;;;5088325;28;46337;-71
2023/04/08 05:55:12;;;;;;;1.87;1.37;;;12.40;50.20;;;;;;5088323;28;45459;-71
2023/04/08 05:57:39;;;;;;;1.40;1.30;;;12.40;50.20;;;;;;5088585;28;45288;-71
2023/04/08 06:00:07;;;;;;;1.10;1.00;;;12.50;50.20;;;;;;5088614;28;45264;-71
2023/04/08 06:02:35;;;;;;;0.90;0.90;;;12.40;50.10;;;;;;5088018;28;46403;-71
2023/04/08 06:05:02;;;;;;;1.33;1.20;;;12.40;50.10;;;;;;5088344;28;45381;-71
2023/04/08 06:07:29;;;;;;;0.93;0.90;;;12.40;50.20;;;;;;5088347;28;45630;-71
2023/04/08 06:09:56;;;;;;;1.30;1.20;;;12.40;50.20;;;;;;5088434;28;45305;-71
2023/04/08 06:12:23;;;;;;;1.37;1.07;;;12.50;50.10;;;;;;5088035;28;45332;-71
2023/04/08 06:14:54;;;;;;;1.50;1.10;;;12.50;50.10;;;;;;5088007;28;45432;-71
2023/04/08 06:17:20;;;;;;;1.30;1.10;;;12.50;50.10;;;;;;5088114;28;45293;-71
2023/04/08 06:19:49;;;;;;;1.80;1.20;;;12.50;50.00;;;;;;5088296;28;45261;-72
2023/04/08 06:22:16;;;;;;;1.40;1.20;;;12.50;50.10;;;;;;5087784;28;46743;-72
2023/04/08 06:24:42;;;;;;;1.00;1.00;;;12.50;50.10;;;;;;5087890;28;45308;-71
2023/04/08 06:27:10;;;;;;;1.10;1.10;;;12.50;50.10;;;;;;5087641;28;45339;-72
2023/04/08 06:29:36;;;;;;;3.73;1.03;;;12.50;50.20;;;;;;5087906;28;45545;-72
2023/04/08 06:32:04;;;;;;;1.47;0.90;;;12.50;50.10;;;;;;5087932;28;47334;-72
2023/04/08 06:34:31;;;;;;;1.57;1.10;;;12.50;50.20;;;;;;5088023;28;45410;-72
2023/04/08 06:36:59;;;;;;;1.23;1.10;;;12.50;50.10;;;;;;5087789;28;45380;-72
2023/04/08 06:39:26;;;;;;;2.40;1.20;;;12.50;50.20;;;;;;5087654;27;45323;-72
2023/04/08 06:41:54;;;;;;;1.30;1.20;;;12.50;50.20;;;;;;5087690;28;46508;-72
2023/04/08 06:44:21;;;;;;;1.20;1.10;;;12.50;50.10;;;;;;5087387;28;45371;-72
2023/04/08 06:46:47;;;;;;;1.20;1.10;;;12.50;50.20;;;;;;5087511;28;45309;-72
2023/04/08 06:49:14;;;;;;;2.10;1.10;;;12.50;50.20;;;;;;5088044;28;45328;-72
2023/04/08 06:51:41;;;;;;;0.90;0.90;;;12.50;50.10;;;;;;5087327;28;47379;-71
2023/04/08 06:54:09;;;;;;;1.30;1.20;;;12.50;50.20;;;;;;5087498;28;45265;-72
2023/04/08 06:56:36;;;;;;;2.25;1.38;;;12.50;50.10;;;;;;5087479;28;45365;-72
2023/04/08 06:59:03;;;;;;;1.97;1.03;;;12.50;50.10;;;;;;5087599;28;45392;-72
2023/04/08 07:01:30;;;;;;;1.10;1.00;;;12.50;50.10;;;;;;5087260;28;46790;-72
2023/04/08 07:03:57;;;;;;;1.60;1.33;;;12.50;50.10;;;;;;5087459;28;45138;-71
2023/04/08 07:06:24;;;;;;;1.20;1.10;;;12.50;50.10;;;;;;5087360;28;45328;-71
2023/04/08 07:08:51;;;;;;;1.20;1.10;;;12.50;49.90;;;;;;5087504;28;45434;-72
2023/04/08 07:11:19;;;;;;;2.10;1.45;;;12.60;49.90;;;;;;5086886;28;45329;-72
2023/04/08 07:13:46;;;;;;;1.45;1.20;;;12.60;49.90;;;;;;5087138;28;45322;-71
2023/04/08 07:16:13;;;;;;;1.37;1.20;;;12.60;49.80;;;;;;5087260;28;45304;-72
2023/04/08 07:18:41;;;;;;;1.37;1.23;;;12.60;49.90;;;;;;5087266;28;45506;-72
2023/04/08 07:21:08;;;;;;;1.50;1.13;;;12.60;50.60;;;;;;5086978;28;45383;-71
2023/04/08 07:23:35;;;;;;;1.30;1.20;;;12.60;49.80;;;;;;5087204;28;45309;-70
2023/04/08 07:26:03;;;;;;;1.30;1.20;;;12.60;49.90;;;;;;5086814;28;45361;-70
2023/04/08 07:28:31;;;;;;;1.35;1.25;;;12.70;49.90;;;;;;5087163;28;45371;-70
2023/04/08 07:31:10;;;;;;;1.23;1.10;;;12.70;50.00;;;;;;5086831;28;45482;-71
2023/04/08 07:33:36;;;;;;;1.00;1.00;;;12.70;49.70;;;;;;5086684;28;45343;-70
2023/04/08 07:36:04;;;;;;;1.10;1.00;;;12.70;49.70;;;;;;5086649;28;45339;-70
2023/04/08 07:38:31;;;;;;;1.10;1.10;;;12.80;50.30;;;;;;5087120;28;45523;-70
2023/04/08 07:40:57;;;;;;;2.13;0.95;;;12.80;49.90;;;;;;5086592;28;46358;-70
2023/04/08 07:43:24;;;;;;;0.98;0.90;;;12.80;49.70;;;;;;5086784;28;45356;-72
2023/04/08 07:45:52;;;;;;;1.50;1.10;;;12.80;49.70;;;;;;5086697;28;45200;-72
2023/04/08 07:48:19;;;;;;;1.10;1.00;;;12.80;49.50;;;;;;5086805;28;45354;-72
2023/04/08 07:50:46;;;;;;;1.13;1.03;;;12.80;49.60;;;;;;5085612;27;46383;-72
2023/04/08 07:53:13;;;;;;;1.17;1.10;;;12.80;49.60;;;;;;5086550;28;45582;-72
2023/04/08 07:55:41;;;;;;;1.50;1.40;;;12.90;49.50;;;;;;5086655;28;45404;-72
2023/04/08 07:58:08;;;;;;;1.35;1.23;;;12.90;50.20;;;;;;5086848;28;45299;-72
2023/04/08 08:00:34;;;;;;;0.95;0.95;;;12.90;49.70;;;;;;5086538;28;46380;-72
2023/04/08 08:03:03;;;;;;;1.70;1.08;;;12.90;49.50;;;;;;5086482;28;45399;-72
2023/04/08 08:05:30;;;;;;;1.30;1.20;;;12.90;49.70;;;;;;5086479;28;45324;-72
2023/04/08 08:08:00;;;;;;;1.30;1.20;;;12.90;49.50;;;;;;5086553;28;45119;-71
2023/04/08 08:10:27;;;;;;;1.10;1.10;;;13.00;49.60;;;;;;5086176;28;45543;-72
2023/04/08 08:12:54;;;;;;;1.27;1.17;;;13.00;49.50;;;;;;5086447;28;45309;-71
2023/04/08 08:15:21;;;;;;;1.40;1.30;;;13.00;49.70;;;;;;5086193;28;45277;-71
2023/04/08 08:17:48;;;;;;;1.10;1.00;;;13.00;49.70;;;;;;5086200;28;45440;-72
2023/04/08 08:20:16;;;;;;;1.65;1.00;;;13.00;49.80;;;;;;5085937;28;45785;-71
2023/04/08 08:22:44;;;;;;;1.73;1.17;;;13.00;49.80;;;;;;5086096;28;45609;-72
2023/04/08 08:25:11;;;;;;;1.27;1.17;;;13.00;49.80;;;;;;5085928;28;45339;-73
2023/04/08 08:27:40;;;;;;;1.38;1.27;;;13.00;49.90;;;;;;5086217;28;45393;-72
2023/04/08 08:30:08;;;;;;;1.38;1.27;;;13.00;49.90;;;;;;5085766;28;45448;-72
2023/04/08 08:32:35;;;;;;;1.60;1.03;;;13.00;49.90;;;;;;5086102;28;45289;-73
2023/04/08 08:35:02;;;;;;;1.20;1.10;;;13.10;50.20;;;;;;5085910;28;45328;-72
2023/04/08 08:37:30;;;;;;;2.42;1.10;;;13.10;50.20;;;;;;5086045;28;45356;-72
2023/04/08 08:39:57;;;;;;;2.65;1.20;;;13.10;50.00;;;;;;5085806;28;45354;-72
2023/04/08 08:42:24;;;;;;;2.13;1.30;;;13.10;50.30;;;;;;5085647;28;45326;-72
2023/04/08 08:44:51;;;;;;;1.37;1.03;;;13.20;49.90;;;;;;5085949;28;45391;-72
2023/04/08 08:47:18;;;;;;;1.13;1.02;;;13.20;49.90;;;;;;5085816;28;45290;-72
2023/04/08 08:49:45;;;;;;;0.95;0.95;;;13.30;50.00;;;;;;5085534;28;45468;-72
2023/04/08 08:52:16;;;;;;;1.10;1.00;;;13.20;50.30;;;;;;5085552;28;45498;-72
2023/04/08 08:54:44;;;;;;;0.93;0.93;;;13.30;49.80;;;;;;5085703;28;45240;-72
2023/04/08 08:57:17;;;;;;;1.67;1.10;;;13.30;49.70;;;;;;5085799;28;44955;-73
2023/04/08 08:59:46;;;;;;;1.63;1.17;;;13.30;49.70;;;;;;5085461;28;46703;-72
2023/04/08 09:02:27;;;;;;;1.33;1.00;;;13.40;49.80;;;;;;5085573;28;45404;-72
2023/04/08 09:05:00;;;;;;;1.33;1.13;;;13.40;49.80;;;;;;5081494;28;45284;-71
2023/04/08 09:07:27;;;;;;;2.60;1.10;;;13.40;49.70;;;;;;5065383;28;45297;-73
2023/04/08 09:09:56;;;;;;;1.17;1.15;;;13.40;49.90;;;;;;5064932;28;45707;-70
2023/04/08 09:12:23;;;;;;;1.30;1.20;;;13.40;50.10;;;;;;5064820;28;45375;-70
2023/04/08 09:14:50;;;;;;;1.30;1.15;;;13.50;50.10;;;;;;5065100;28;45280;-70
2023/04/08 09:17:31;;;;;;;1.30;1.20;;;13.50;50.20;;;;;;5064964;28;45468;-70
2023/04/08 09:20:11;;;;;;;1.80;1.05;;;13.50;50.10;;;;;;5064853;28;45487;-70
2023/04/08 09:22:56;;;;;;;2.08;1.25;;;13.50;50.20;;;;;;5064863;28;45320;-70
2023/04/08 09:25:25;;;;;;;1.95;1.02;;;13.60;50.20;;;;;;5064917;28;45398;-70
2023/04/08 09:27:53;;;;;;;1.65;1.30;;;13.60;50.10;;;;;;5064967;28;45326;-70
2023/04/08 09:30:21;;;;;;;1.23;1.10;;;13.60;50.20;;;;;;5064764;28;45565;-70
2023/04/08 09:32:48;;;;;;;1.60;1.10;;;13.60;50.20;;;;;;5064840;28;45271;-70
2023/04/08 09:35:16;;;;;;;1.20;0.95;;;13.60;50.10;;;;;;5064736;28;45386;-70
2023/04/08 09:37:43;;;;;;;1.30;1.20;;;13.60;50.10;;;;;;5064962;28;45293;-70
2023/04/08 09:40:10;;;;;;;1.83;1.10;;;13.60;50.10;;;;;;5064650;28;46396;-70
2023/04/08 09:42:40;;;;;;;1.10;0.90;;;13.70;50.20;;;;;;5064663;28;45331;-70
2023/04/08 09:45:08;;;;;;;1.10;1.00;;;13.60;50.20;;;;;;5064840;28;45401;-70
2023/04/08 09:47:36;;;;;;;2.33;1.10;;;13.60;50.20;;;;;;5071642;28;45374;-70
2023/04/08 09:50:03;;;;;;;1.05;1.05;;;13.70;50.20;;;;;;5084656;28;45442;-70
2023/04/08 09:52:32;;;;;;;4.18;1.30;;;13.70;50.20;;;;;;5084746;28;45451;-70
2023/04/08 09:55:01;;;;;;;2.03;1.15;;;13.70;50.20;;;;;;5084826;28;45323;-70
2023/04/08 09:57:32;;;;;;;1.83;1.20;;;13.70;50.20;;;;;;5084849;28;45244;-70
2023/04/08 10:00:04;;;;;;;0.73;0.73;;;13.70;50.20;;;;;;5084770;28;46794;-69
2023/04/08 10:02:31;;;;;;;1.10;1.00;;;13.80;50.20;;;;;;5084878;28;45388;-68
2023/04/08 10:04:58;;;;;;;1.20;1.10;;;13.80;50.20;;;;;;5084705;28;45411;-69
2023/04/08 10:07:25;;;;;;;2.35;1.33;;;13.80;50.10;;;;;;5082091;28;45371;-69
2023/04/08 10:09:52;;;;;;;1.10;1.10;;;13.80;50.10;;;;;;5084517;28;46632;-69
2023/04/08 10:12:19;;;;;;;1.02;0.90;;;13.80;50.10;;;;;;5084654;28;45383;-69
2023/04/08 10:15:20;;;;;;;1.27;1.17;;;13.80;50.10;;;;;;5087027;27;45398;-69
2023/04/08 10:17:48;;;;;;;1.33;1.10;;;13.80;50.20;;;;;;5088282;28;45474;-71
2023/04/08 10:20:43;;;;;;;0.95;0.90;;;13.90;50.30;;;;;;5087888;28;45517;-71
2023/04/08 10:23:12;;;;;;;1.25;1.15;;;13.90;50.30;;;;;;5087835;28;45312;-69
2023/04/08 10:25:40;;;;;;;1.38;0.98;;;13.90;50.30;;;;;;5087820;28;45495;-69
2023/04/08 10:28:24;;;;;;;2.55;1.40;;;13.80;50.80;;;;;;5088107;28;45665;-69
2023/04/08 10:30:51;;;;;;;2.90;1.25;;;13.90;50.90;;;;;;5087560;28;45349;-69
2023/04/08 10:33:21;;;;;;;3.53;1.25;;;13.90;50.90;;;;;;5087865;28;45320;-70
2023/04/08 10:35:49;;;;;;;2.45;1.30;;;13.90;50.90;;;;;;5087847;28;45467;-71
2023/04/08 10:38:16;;;;;;;2.03;1.23;;;13.90;50.90;;;;;;5087906;28;45332;-71
2023/04/08 10:40:44;;;;;;;1.38;1.15;;;13.90;50.90;;;;;;5087660;28;45478;-72
2023/04/08 10:43:11;;;;;;;2.38;1.52;;;13.90;50.90;;;;;;5087476;28;45338;-72
2023/04/08 10:45:38;;;;;;;1.23;1.13;;;13.90;50.80;;;;;;5087588;28;45309;-72
2023/04/08 10:48:15;;;;;;;0.90;0.90;;;13.90;50.80;;;;;;5087756;28;45313;-72
2023/04/08 10:50:43;;;;;;;1.27;1.20;;;13.90;50.80;;;;;;5087449;28;46688;-72
2023/04/08 10:53:10;;;;;;;2.25;1.30;;;13.90;50.80;;;;;;5087299;28;45297;-72
2023/04/08 10:55:37;;;;;;;1.75;1.23;;;13.90;50.80;;;;;;5087501;28;45455;-72
2023/04/08 10:58:07;;;;;;;2.40;1.40;;;13.90;50.80;;;;;;5087547;28;45367;-72
2023/04/08 11:00:35;;;;;;;1.30;1.10;;;14.00;51.30;;;;;;5087263;28;45274;-71
2023/04/08 11:03:02;;;;;;;1.55;1.15;;;14.00;50.70;;;;;;5087394;28;45482;-72
2023/04/08 11:05:30;;;;;;;1.55;1.40;;;14.00;50.60;;;;;;5087434;28;45312;-72
2023/04/08 11:07:58;;;;;;;1.48;1.17;;;14.00;50.60;;;;;;5087440;28;45388;-71
2023/04/08 11:10:25;;;;;;;1.40;1.30;;;14.10;50.50;;;;;;5087020;28;46497;-72
2023/04/08 11:12:53;;;;;;;1.58;0.82;;;14.20;50.50;;;;;;5087167;28;45365;-71
2023/04/08 11:15:20;;;;;;;3.05;1.27;;;14.30;50.30;;;;;;5091375;27;45451;-71
2023/04/08 11:17:47;;;;;;;1.25;1.13;;;14.40;50.00;;;;;;5090622;27;45430;-71
2023/04/08 11:20:14;;;;;;;1.77;1.10;;;14.40;49.80;;;;;;5086497;28;48454;-71
2023/04/08 11:22:41;;;;;;;1.50;1.40;;;14.50;49.80;;;;;;5087099;28;45230;-71
2023/04/08 11:25:09;;;;;;;1.55;1.10;;;14.50;49.80;;;;;;5085750;27;45358;-71
2023/04/08 11:27:36;;;;;;;2.03;1.00;;;14.50;49.70;;;;;;5087198;28;45424;-71
2023/04/08 11:30:04;;;;;;;1.45;1.00;;;14.60;49.60;;;;;;5086693;28;46573;-69
2023/04/08 11:32:31;;;;;;;1.50;1.20;;;14.60;49.60;;;;;;5086779;28;45325;-71
2023/04/08 11:35:00;;;;;;;3.20;1.20;;;14.50;49.70;;;;;;5086791;28;45412;-71
2023/04/08 11:37:27;;;;;;;1.33;1.17;;;14.50;49.70;;;;;;5086991;28;45494;-71
2023/04/08 11:39:55;;;;;;;1.10;0.98;;;14.50;50.00;;;;;;5086565;28;45648;-71
2023/04/08 11:42:30;;;;;;;1.63;1.52;;;14.50;50.00;;;;;;5086633;28;45348;-71
2023/04/08 11:44:57;;;;;;;1.13;1.02;;;14.50;50.00;;;;;;5086796;28;45418;-71
2023/04/08 11:47:30;;;;;;;1.83;1.02;;;14.50;50.00;;;;;;5086813;28;45300;-71
2023/04/08 11:49:57;;;;;;;1.42;1.10;;;14.50;50.10;;;;;;5086474;28;45338;-71
2023/04/08 11:52:39;;;;;;;1.38;1.23;;;14.50;50.10;;;;;;5086371;28;45336;-71
2023/04/08 11:55:06;;;;;;;1.30;1.20;;;14.50;50.10;;;;;;5086514;28;45270;-71
2023/04/08 11:57:35;;;;;;;1.45;1.20;;;14.60;50.10;;;;;;5084464;28;45318;-71
2023/04/08 12:00:04;;;;;;;1.80;1.20;;;14.60;50.10;;;;;;5082243;28;47551;-71
2023/04/08 12:02:31;;;;;;;1.35;1.25;;;14.60;50.10;;;;;;5078464;28;45367;-71
2023/04/08 12:04:58;;;;;;;1.02;1.02;;;14.60;50.20;;;;;;5083346;28;45447;-71
2023/04/08 12:07:25;;;;;;;2.05;1.25;;;14.60;50.10;;;;;;5084300;28;45586;-69
2023/04/08 12:09:52;;;;;;;2.00;1.10;;;14.70;50.10;;;;;;5083171;28;45578;-69
2023/04/08 12:12:19;;;;;;;1.15;1.00;;;14.80;49.90;;;;;;5083561;28;45360;-69
2023/04/08 12:14:47;;;;;;;2.70;1.30;;;14.90;49.70;;;;;;5084290;28;45448;-69
2023/04/08 12:17:14;;;;;;;2.55;1.10;;;14.90;49.60;;;;;;5078887;28;45534;-70
2023/04/08 12:19:41;;;;;;;1.13;1.10;;;14.90;49.40;;;;;;5082471;28;45481;-69
2023/04/08 12:22:08;;;;;;;1.40;1.30;;;14.90;49.60;;;;;;5079335;28;45468;-69
2023/04/08 12:24:35;;;;;;;1.80;1.35;;;14.90;49.80;;;;;;5082049;28;45397;-69
2023/04/08 12:27:03;;;;;;;2.05;1.58;;;15.10;49.80;;;;;;5080924;28;45468;-68
2023/04/08 12:29:30;;;;;;;2.40;1.52;;;15.30;49.60;;;;;;5083167;28;45461;-69
2023/04/08 12:31:58;;;;;;;3.00;1.67;;;15.40;49.40;;;;;;5077218;28;45423;-71
2023/04/08 12:34:25;;;;;;;4.63;1.65;;;15.50;49.30;;;;;;5084767;28;45547;-71
2023/04/08 12:36:52;;;;;;;3.97;1.65;;;15.60;49.30;;;;;;5081825;27;45489;-71
2023/04/08 12:39:18;;;;;;;2.60;1.35;;;15.60;49.20;;;;;;5083305;28;46390;-71
2023/04/08 12:41:45;;;;;;;1.90;1.63;;;15.60;49.10;;;;;;5083093;28;45613;-71
2023/04/08 12:44:12;;;;;;;1.65;1.45;;;15.80;49.00;;;;;;5083130;28;45509;-71
2023/04/08 12:46:39;;;;;;;1.15;1.10;;;15.90;48.70;;;;;;5084039;28;45377;-71
2023/04/08 12:49:07;;;;;;;1.20;1.10;;;15.90;48.60;;;;;;5081473;28;45572;-71
2023/04/08 12:51:34;;;;;;;2.80;1.70;;;15.80;48.90;;;;;;5082919;28;45486;-71